sensor_id;sensor_type;location;lat;lon;timestamp;P1;durP1;ratioP1;P2;durP2;ratioP2
14740;SDS011;7462;53.530;9.414;2022-11-28T00:01:33;10.90;;;7.27;;
14740;SDS011;7462;53.530;9.414;2022-11-28T00:04:04;52.83;;;29.17;;
14740;SDS011;7462;53.530;9.414;2022-11-28T00:06:35;42.17;;;24.93;;
14740;SDS011;7462;53.530;9.414;2022-11-28T00:09:05;20.13;;;12.27;;
14740;SDS011;7462;53.530;9.414;2022-11-28T00:11:34;15.93;;;10.20;;
14740;SDS011;7462;53.530;9.414;2022-11-28T00:14:02;11.47;;;7.90;;
14740;SDS011;7462;53.530;9.414;2022-11-28T00:16:30;10.83;;;8.10;;
14740;SDS011;7462;53.530;9.414;2022-11-28T00:18:59;9.70;;;7.00;;
14740;SDS011;7462;53.530;9.414;2022-11-28T00:21:29;10.90;;;7.43;;
14740;SDS011;7462;53.530;9.414;2022-11-28T00:23:58;9.60;;;7.07;;
14740;SDS011;7462;53.530;9.414;2022-11-28T00:26:27;10.20;;;7.10;;
14740;SDS011;7462;53.530;9.414;2022-11-28T00:28:58;11.93;;;6.93;;
14740;SDS011;7462;53.530;9.414;2022-11-28T00:31:28;9.10;;;6.80;;
14740;SDS011;7462;53.530;9.414;2022-11-28T00:33:58;8.57;;;6.83;;
14740;SDS011;7462;53.530;9.414;2022-11-28T00:36:28;10.73;;;6.83;;
14740;SDS011;7462;53.530;9.414;2022-11-28T00:38:57;10.60;;;7.57;;
14740;SDS011;7462;53.530;9.414;2022-11-28T00:41:25;10.87;;;7.20;;
14740;SDS011;7462;53.530;9.414;2022-11-28T00:43:55;10.67;;;6.73;;
14740;SDS011;7462;53.530;9.414;2022-11-28T00:46:23;9.83;;;7.40;;
14740;SDS011;7462;53.530;9.414;2022-11-28T00:48:52;10.67;;;7.27;;
14740;SDS011;7462;53.530;9.414;2022-11-28T00:51:21;9.60;;;7.30;;
14740;SDS011;7462;53.530;9.414;2022-11-28T00:53:51;9.73;;;7.70;;
14740;SDS011;7462;53.530;9.414;2022-11-28T00:56:22;13.13;;;7.27;;
14740;SDS011;7462;53.530;9.414;2022-11-28T00:58:51;10.07;;;7.90;;
14740;SDS011;7462;53.530;9.414;2022-11-28T01:01:20;13.10;;;8.00;;
14740;SDS011;7462;53.530;9.414;2022-11-28T01:03:50;10.10;;;7.70;;
14740;SDS011;7462;53.530;9.414;2022-11-28T01:06:20;13.47;;;8.70;;
14740;SDS011;7462;53.530;9.414;2022-11-28T01:08:52;12.93;;;8.53;;
14740;SDS011;7462;53.530;9.414;2022-11-28T01:11:21;12.57;;;8.43;;
14740;SDS011;7462;53.530;9.414;2022-11-28T01:13:49;11.73;;;8.30;;
14740;SDS011;7462;53.530;9.414;2022-11-28T01:16:19;12.67;;;8.20;;
14740;SDS011;7462;53.530;9.414;2022-11-28T01:18:48;11.17;;;8.37;;
14740;SDS011;7462;53.530;9.414;2022-11-28T01:21:16;13.77;;;9.07;;
14740;SDS011;7462;53.530;9.414;2022-11-28T01:23:45;11.80;;;8.43;;
14740;SDS011;7462;53.530;9.414;2022-11-28T01:26:16;12.73;;;8.40;;
14740;SDS011;7462;53.530;9.414;2022-11-28T01:28:46;10.97;;;7.70;;
14740;SDS011;7462;53.530;9.414;2022-11-28T01:31:15;15.93;;;8.50;;
14740;SDS011;7462;53.530;9.414;2022-11-28T01:33:44;12.57;;;8.33;;
14740;SDS011;7462;53.530;9.414;2022-11-28T01:36:13;11.97;;;8.23;;
14740;SDS011;7462;53.530;9.414;2022-11-28T01:38:41;12.53;;;8.63;;
14740;SDS011;7462;53.530;9.414;2022-11-28T01:41:10;12.63;;;8.30;;
14740;SDS011;7462;53.530;9.414;2022-11-28T01:46:25;12.97;;;8.53;;
14740;SDS011;7462;53.530;9.414;2022-11-28T01:48:54;13.13;;;8.07;;
14740;SDS011;7462;53.530;9.414;2022-11-28T01:51:25;11.97;;;8.37;;
14740;SDS011;7462;53.530;9.414;2022-11-28T01:53:54;12.07;;;8.00;;
14740;SDS011;7462;53.530;9.414;2022-11-28T01:56:24;13.50;;;8.57;;
14740;SDS011;7462;53.530;9.414;2022-11-28T01:58:56;11.33;;;8.77;;
14740;SDS011;7462;53.530;9.414;2022-11-28T02:01:29;12.40;;;9.07;;
14740;SDS011;7462;53.530;9.414;2022-11-28T02:03:57;10.63;;;8.67;;
14740;SDS011;7462;53.530;9.414;2022-11-28T02:06:26;13.17;;;8.40;;
14740;SDS011;7462;53.530;9.414;2022-11-28T02:08:56;11.90;;;8.07;;
14740;SDS011;7462;53.530;9.414;2022-11-28T02:11:28;12.20;;;8.20;;
14740;SDS011;7462;53.530;9.414;2022-11-28T02:14:14;13.13;;;7.97;;
14740;SDS011;7462;53.530;9.414;2022-11-28T02:16:55;15.30;;;9.37;;
14740;SDS011;7462;53.530;9.414;2022-11-28T02:19:47;12.93;;;8.90;;
14740;SDS011;7462;53.530;9.414;2022-11-28T02:22:40;12.67;;;8.17;;
14740;SDS011;7462;53.530;9.414;2022-11-28T02:25:24;11.60;;;8.43;;
14740;SDS011;7462;53.530;9.414;2022-11-28T02:28:11;13.63;;;8.33;;
14740;SDS011;7462;53.530;9.414;2022-11-28T02:31:01;11.77;;;8.27;;
14740;SDS011;7462;53.530;9.414;2022-11-28T02:33:44;11.33;;;8.77;;
14740;SDS011;7462;53.530;9.414;2022-11-28T02:36:17;12.37;;;9.07;;
14740;SDS011;7462;53.530;9.414;2022-11-28T02:38:53;12.60;;;9.50;;
14740;SDS011;7462;53.530;9.414;2022-11-28T02:41:29;11.40;;;8.40;;
14740;SDS011;7462;53.530;9.414;2022-11-28T02:44:03;13.00;;;9.13;;
14740;SDS011;7462;53.530;9.414;2022-11-28T02:46:40;12.57;;;9.57;;
14740;SDS011;7462;53.530;9.414;2022-11-28T02:49:17;16.90;;;10.13;;
14740;SDS011;7462;53.530;9.414;2022-11-28T02:51:51;12.60;;;9.07;;
14740;SDS011;7462;53.530;9.414;2022-11-28T02:54:22;11.83;;;9.17;;
14740;SDS011;7462;53.530;9.414;2022-11-28T02:56:53;13.07;;;9.40;;
14740;SDS011;7462;53.530;9.414;2022-11-28T02:59:28;13.33;;;10.23;;
14740;SDS011;7462;53.530;9.414;2022-11-28T03:02:12;13.97;;;9.93;;
14740;SDS011;7462;53.530;9.414;2022-11-28T03:04:46;13.10;;;9.80;;
14740;SDS011;7462;53.530;9.414;2022-11-28T03:07:25;11.83;;;9.10;;
14740;SDS011;7462;53.530;9.414;2022-11-28T03:10:03;12.77;;;9.63;;
14740;SDS011;7462;53.530;9.414;2022-11-28T03:12:44;16.57;;;10.20;;
14740;SDS011;7462;53.530;9.414;2022-11-28T03:15:19;14.17;;;9.47;;
14740;SDS011;7462;53.530;9.414;2022-11-28T03:17:51;12.17;;;9.43;;
14740;SDS011;7462;53.530;9.414;2022-11-28T03:20:30;11.83;;;8.77;;
14740;SDS011;7462;53.530;9.414;2022-11-28T03:23:10;12.47;;;9.33;;
14740;SDS011;7462;53.530;9.414;2022-11-28T03:25:45;12.80;;;9.20;;
14740;SDS011;7462;53.530;9.414;2022-11-28T03:28:22;12.90;;;9.03;;
14740;SDS011;7462;53.530;9.414;2022-11-28T03:30:54;12.13;;;9.10;;
14740;SDS011;7462;53.530;9.414;2022-11-28T03:33:26;11.77;;;8.83;;
14740;SDS011;7462;53.530;9.414;2022-11-28T03:35:59;11.93;;;8.67;;
14740;SDS011;7462;53.530;9.414;2022-11-28T03:38:32;13.13;;;8.90;;
14740;SDS011;7462;53.530;9.414;2022-11-28T03:41:07;13.73;;;8.73;;
14740;SDS011;7462;53.530;9.414;2022-11-28T03:43:40;12.43;;;9.07;;
14740;SDS011;7462;53.530;9.414;2022-11-28T03:46:14;11.37;;;8.90;;
14740;SDS011;7462;53.530;9.414;2022-11-28T03:48:45;13.97;;;8.90;;
14740;SDS011;7462;53.530;9.414;2022-11-28T03:51:17;15.07;;;9.30;;
14740;SDS011;7462;53.530;9.414;2022-11-28T03:53:49;11.80;;;8.70;;
14740;SDS011;7462;53.530;9.414;2022-11-28T03:56:24;12.47;;;8.87;;
14740;SDS011;7462;53.530;9.414;2022-11-28T03:59:00;14.57;;;9.03;;
14740;SDS011;7462;53.530;9.414;2022-11-28T04:01:35;10.47;;;8.70;;
14740;SDS011;7462;53.530;9.414;2022-11-28T04:04:13;11.40;;;8.17;;
14740;SDS011;7462;53.530;9.414;2022-11-28T04:06:52;12.73;;;9.00;;
14740;SDS011;7462;53.530;9.414;2022-11-28T04:09:31;12.97;;;8.93;;
14740;SDS011;7462;53.530;9.414;2022-11-28T04:12:06;11.33;;;8.23;;
14740;SDS011;7462;53.530;9.414;2022-11-28T04:14:43;12.80;;;8.93;;
14740;SDS011;7462;53.530;9.414;2022-11-28T04:17:17;12.80;;;9.53;;
14740;SDS011;7462;53.530;9.414;2022-11-28T04:19:52;8.83;;;7.90;;
14740;SDS011;7462;53.530;9.414;2022-11-28T04:22:28;12.57;;;8.67;;
14740;SDS011;7462;53.530;9.414;2022-11-28T04:25:01;10.90;;;8.17;;
14740;SDS011;7462;53.530;9.414;2022-11-28T04:27:34;11.27;;;8.60;;
14740;SDS011;7462;53.530;9.414;2022-11-28T04:30:05;11.33;;;8.57;;
14740;SDS011;7462;53.530;9.414;2022-11-28T04:32:35;14.37;;;8.67;;
14740;SDS011;7462;53.530;9.414;2022-11-28T04:35:08;11.77;;;8.20;;
14740;SDS011;7462;53.530;9.414;2022-11-28T04:37:40;11.83;;;8.70;;
14740;SDS011;7462;53.530;9.414;2022-11-28T04:40:13;10.77;;;8.10;;
14740;SDS011;7462;53.530;9.414;2022-11-28T04:42:44;10.17;;;8.07;;
14740;SDS011;7462;53.530;9.414;2022-11-28T04:45:20;13.07;;;8.50;;
14740;SDS011;7462;53.530;9.414;2022-11-28T04:47:52;11.57;;;7.93;;
14740;SDS011;7462;53.530;9.414;2022-11-28T04:50:21;13.77;;;9.00;;
14740;SDS011;7462;53.530;9.414;2022-11-28T04:52:57;12.90;;;8.97;;
14740;SDS011;7462;53.530;9.414;2022-11-28T04:55:32;14.97;;;9.90;;
14740;SDS011;7462;53.530;9.414;2022-11-28T04:58:05;15.33;;;10.63;;
14740;SDS011;7462;53.530;9.414;2022-11-28T05:00:39;11.17;;;9.43;;
14740;SDS011;7462;53.530;9.414;2022-11-28T05:03:07;13.23;;;7.83;;
14740;SDS011;7462;53.530;9.414;2022-11-28T05:05:43;11.50;;;8.60;;
14740;SDS011;7462;53.530;9.414;2022-11-28T05:08:13;11.97;;;8.13;;
14740;SDS011;7462;53.530;9.414;2022-11-28T05:10:42;8.93;;;7.23;;
14740;SDS011;7462;53.530;9.414;2022-11-28T05:13:10;8.77;;;7.20;;
14740;SDS011;7462;53.530;9.414;2022-11-28T05:15:38;10.90;;;7.17;;
14740;SDS011;7462;53.530;9.414;2022-11-28T05:18:06;8.53;;;6.70;;
14740;SDS011;7462;53.530;9.414;2022-11-28T05:20:35;9.87;;;7.07;;
14740;SDS011;7462;53.530;9.414;2022-11-28T05:23:04;9.23;;;6.97;;
14740;SDS011;7462;53.530;9.414;2022-11-28T05:25:33;9.60;;;7.27;;
14740;SDS011;7462;53.530;9.414;2022-11-28T05:28:04;7.80;;;6.70;;
14740;SDS011;7462;53.530;9.414;2022-11-28T05:30:32;9.20;;;6.90;;
14740;SDS011;7462;53.530;9.414;2022-11-28T05:33:00;9.80;;;7.30;;
14740;SDS011;7462;53.530;9.414;2022-11-28T05:35:28;8.77;;;7.53;;
14740;SDS011;7462;53.530;9.414;2022-11-28T05:37:56;10.87;;;6.77;;
14740;SDS011;7462;53.530;9.414;2022-11-28T05:40:24;9.40;;;7.27;;
14740;SDS011;7462;53.530;9.414;2022-11-28T05:42:54;7.83;;;6.67;;
14740;SDS011;7462;53.530;9.414;2022-11-28T05:45:22;7.80;;;7.00;;
14740;SDS011;7462;53.530;9.414;2022-11-28T05:47:50;9.37;;;7.07;;
14740;SDS011;7462;53.530;9.414;2022-11-28T05:50:18;8.33;;;6.73;;
14740;SDS011;7462;53.530;9.414;2022-11-28T05:52:46;9.07;;;7.30;;
14740;SDS011;7462;53.530;9.414;2022-11-28T05:55:14;10.47;;;7.73;;
14740;SDS011;7462;53.530;9.414;2022-11-28T05:57:42;7.90;;;6.80;;
14740;SDS011;7462;53.530;9.414;2022-11-28T06:00:12;8.07;;;6.73;;
14740;SDS011;7462;53.530;9.414;2022-11-28T06:02:41;9.77;;;6.67;;
14740;SDS011;7462;53.530;9.414;2022-11-28T06:05:09;8.20;;;6.57;;
14740;SDS011;7462;53.530;9.414;2022-11-28T06:07:57;8.47;;;7.20;;
14740;SDS011;7462;53.530;9.414;2022-11-28T06:10:25;8.30;;;6.87;;
14740;SDS011;7462;53.530;9.414;2022-11-28T06:12:53;9.80;;;7.37;;
14740;SDS011;7462;53.530;9.414;2022-11-28T06:15:23;8.83;;;6.87;;
14740;SDS011;7462;53.530;9.414;2022-11-28T06:17:51;9.10;;;6.90;;
14740;SDS011;7462;53.530;9.414;2022-11-28T06:20:19;9.40;;;7.60;;
14740;SDS011;7462;53.530;9.414;2022-11-28T06:22:47;9.23;;;6.73;;
14740;SDS011;7462;53.530;9.414;2022-11-28T06:25:15;11.07;;;8.03;;
14740;SDS011;7462;53.530;9.414;2022-11-28T06:27:43;13.33;;;8.73;;
14740;SDS011;7462;53.530;9.414;2022-11-28T06:30:11;10.90;;;8.10;;
14740;SDS011;7462;53.530;9.414;2022-11-28T06:32:41;13.70;;;8.53;;
14740;SDS011;7462;53.530;9.414;2022-11-28T06:35:09;9.67;;;7.63;;
14740;SDS011;7462;53.530;9.414;2022-11-28T06:37:37;10.87;;;8.93;;
14740;SDS011;7462;53.530;9.414;2022-11-28T06:40:06;10.83;;;8.60;;
14740;SDS011;7462;53.530;9.414;2022-11-28T06:42:36;10.90;;;8.27;;
14740;SDS011;7462;53.530;9.414;2022-11-28T06:45:05;10.50;;;8.17;;
14740;SDS011;7462;53.530;9.414;2022-11-28T06:47:34;9.67;;;7.57;;
14740;SDS011;7462;53.530;9.414;2022-11-28T06:50:04;9.97;;;7.97;;
14740;SDS011;7462;53.530;9.414;2022-11-28T06:52:34;10.30;;;7.27;;
14740;SDS011;7462;53.530;9.414;2022-11-28T06:55:03;10.33;;;7.80;;
14740;SDS011;7462;53.530;9.414;2022-11-28T06:57:31;10.10;;;7.50;;
14740;SDS011;7462;53.530;9.414;2022-11-28T07:00:01;10.13;;;7.53;;
14740;SDS011;7462;53.530;9.414;2022-11-28T07:02:29;8.80;;;7.47;;
14740;SDS011;7462;53.530;9.414;2022-11-28T07:04:58;9.80;;;7.50;;
14740;SDS011;7462;53.530;9.414;2022-11-28T07:07:27;10.17;;;7.70;;
14740;SDS011;7462;53.530;9.414;2022-11-28T07:09:56;10.30;;;7.90;;
14740;SDS011;7462;53.530;9.414;2022-11-28T07:12:24;9.30;;;7.60;;
14740;SDS011;7462;53.530;9.414;2022-11-28T07:14:52;8.87;;;7.63;;
14740;SDS011;7462;53.530;9.414;2022-11-28T07:17:20;10.00;;;8.00;;
14740;SDS011;7462;53.530;9.414;2022-11-28T07:19:48;10.33;;;7.40;;
14740;SDS011;7462;53.530;9.414;2022-11-28T07:22:21;10.27;;;7.80;;
14740;SDS011;7462;53.530;9.414;2022-11-28T07:24:50;8.30;;;7.07;;
14740;SDS011;7462;53.530;9.414;2022-11-28T07:27:18;9.73;;;7.73;;
14740;SDS011;7462;53.530;9.414;2022-11-28T07:29:46;10.83;;;8.37;;
14740;SDS011;7462;53.530;9.414;2022-11-28T07:32:14;9.67;;;7.80;;
14740;SDS011;7462;53.530;9.414;2022-11-28T07:34:42;9.30;;;7.77;;
14740;SDS011;7462;53.530;9.414;2022-11-28T07:37:15;9.90;;;8.13;;
14740;SDS011;7462;53.530;9.414;2022-11-28T07:39:43;11.30;;;8.17;;
14740;SDS011;7462;53.530;9.414;2022-11-28T07:42:13;10.53;;;8.00;;
14740;SDS011;7462;53.530;9.414;2022-11-28T07:44:44;9.20;;;7.83;;
14740;SDS011;7462;53.530;9.414;2022-11-28T07:47:13;9.23;;;7.90;;
14740;SDS011;7462;53.530;9.414;2022-11-28T07:49:41;10.07;;;8.20;;
14740;SDS011;7462;53.530;9.414;2022-11-28T07:52:10;13.63;;;8.47;;
14740;SDS011;7462;53.530;9.414;2022-11-28T07:54:38;12.57;;;9.10;;
14740;SDS011;7462;53.530;9.414;2022-11-28T07:57:06;10.70;;;8.83;;
14740;SDS011;7462;53.530;9.414;2022-11-28T07:59:40;11.70;;;8.43;;
14740;SDS011;7462;53.530;9.414;2022-11-28T08:02:09;12.70;;;9.00;;
14740;SDS011;7462;53.530;9.414;2022-11-28T08:04:37;10.63;;;8.33;;
14740;SDS011;7462;53.530;9.414;2022-11-28T08:07:15;11.37;;;9.03;;
14740;SDS011;7462;53.530;9.414;2022-11-28T08:09:45;12.03;;;9.60;;
14740;SDS011;7462;53.530;9.414;2022-11-28T08:12:13;11.10;;;9.13;;
14740;SDS011;7462;53.530;9.414;2022-11-28T08:14:42;11.63;;;9.53;;
14740;SDS011;7462;53.530;9.414;2022-11-28T08:17:10;14.27;;;10.33;;
14740;SDS011;7462;53.530;9.414;2022-11-28T08:19:38;13.53;;;10.10;;
14740;SDS011;7462;53.530;9.414;2022-11-28T08:22:06;11.73;;;9.20;;
14740;SDS011;7462;53.530;9.414;2022-11-28T08:24:34;14.97;;;9.67;;
14740;SDS011;7462;53.530;9.414;2022-11-28T08:27:02;14.57;;;10.30;;
14740;SDS011;7462;53.530;9.414;2022-11-28T08:29:30;13.20;;;9.87;;
14740;SDS011;7462;53.530;9.414;2022-11-28T08:32:00;14.90;;;10.10;;
14740;SDS011;7462;53.530;9.414;2022-11-28T08:34:31;12.03;;;9.50;;
14740;SDS011;7462;53.530;9.414;2022-11-28T08:36:59;13.67;;;10.53;;
14740;SDS011;7462;53.530;9.414;2022-11-28T08:39:27;15.63;;;10.43;;
14740;SDS011;7462;53.530;9.414;2022-11-28T08:41:55;14.50;;;9.77;;
14740;SDS011;7462;53.530;9.414;2022-11-28T08:44:24;14.83;;;10.57;;
14740;SDS011;7462;53.530;9.414;2022-11-28T08:46:55;13.70;;;10.70;;
14740;SDS011;7462;53.530;9.414;2022-11-28T08:49:25;11.63;;;9.53;;
14740;SDS011;7462;53.530;9.414;2022-11-28T08:51:53;14.20;;;10.07;;
14740;SDS011;7462;53.530;9.414;2022-11-28T08:54:21;18.73;;;11.43;;
14740;SDS011;7462;53.530;9.414;2022-11-28T08:56:49;14.23;;;10.77;;
14740;SDS011;7462;53.530;9.414;2022-11-28T08:59:17;14.20;;;11.00;;
14740;SDS011;7462;53.530;9.414;2022-11-28T09:01:45;14.27;;;10.77;;
14740;SDS011;7462;53.530;9.414;2022-11-28T09:04:13;15.20;;;11.67;;
14740;SDS011;7462;53.530;9.414;2022-11-28T09:06:43;16.07;;;11.43;;
14740;SDS011;7462;53.530;9.414;2022-11-28T09:09:11;15.87;;;10.80;;
14740;SDS011;7462;53.530;9.414;2022-11-28T09:11:39;15.57;;;11.73;;
14740;SDS011;7462;53.530;9.414;2022-11-28T09:14:07;15.97;;;12.13;;
14740;SDS011;7462;53.530;9.414;2022-11-28T09:16:36;18.40;;;12.90;;
14740;SDS011;7462;53.530;9.414;2022-11-28T09:19:04;19.60;;;13.83;;
14740;SDS011;7462;53.530;9.414;2022-11-28T09:21:34;15.77;;;12.67;;
14740;SDS011;7462;53.530;9.414;2022-11-28T09:24:05;16.60;;;12.23;;
14740;SDS011;7462;53.530;9.414;2022-11-28T09:26:33;16.57;;;11.90;;
14740;SDS011;7462;53.530;9.414;2022-11-28T09:29:01;17.37;;;12.73;;
14740;SDS011;7462;53.530;9.414;2022-11-28T09:31:29;16.77;;;12.27;;
14740;SDS011;7462;53.530;9.414;2022-11-28T09:33:58;14.07;;;10.93;;
14740;SDS011;7462;53.530;9.414;2022-11-28T09:36:26;19.30;;;12.83;;
14740;SDS011;7462;53.530;9.414;2022-11-28T09:38:54;15.00;;;11.43;;
14740;SDS011;7462;53.530;9.414;2022-11-28T09:41:36;16.33;;;11.77;;
14740;SDS011;7462;53.530;9.414;2022-11-28T09:44:11;15.83;;;11.70;;
14740;SDS011;7462;53.530;9.414;2022-11-28T09:46:44;16.37;;;12.10;;
14740;SDS011;7462;53.530;9.414;2022-11-28T09:49:18;15.63;;;12.40;;
14740;SDS011;7462;53.530;9.414;2022-11-28T09:51:52;15.77;;;12.33;;
14740;SDS011;7462;53.530;9.414;2022-11-28T09:54:26;16.37;;;12.63;;
14740;SDS011;7462;53.530;9.414;2022-11-28T09:57:06;16.87;;;12.70;;
14740;SDS011;7462;53.530;9.414;2022-11-28T09:59:38;14.27;;;11.30;;
14740;SDS011;7462;53.530;9.414;2022-11-28T10:02:13;13.90;;;10.80;;
14740;SDS011;7462;53.530;9.414;2022-11-28T10:04:51;14.10;;;11.00;;
14740;SDS011;7462;53.530;9.414;2022-11-28T10:07:27;14.30;;;10.93;;
14740;SDS011;7462;53.530;9.414;2022-11-28T10:10:06;16.70;;;11.20;;
14740;SDS011;7462;53.530;9.414;2022-11-28T10:12:44;15.53;;;10.03;;
14740;SDS011;7462;53.530;9.414;2022-11-28T10:15:26;14.17;;;10.33;;
14740;SDS011;7462;53.530;9.414;2022-11-28T10:18:06;13.87;;;10.20;;
14740;SDS011;7462;53.530;9.414;2022-11-28T10:20:44;13.97;;;10.27;;
14740;SDS011;7462;53.530;9.414;2022-11-28T10:23:16;14.50;;;10.07;;
14740;SDS011;7462;53.530;9.414;2022-11-28T10:25:50;12.90;;;10.10;;
14740;SDS011;7462;53.530;9.414;2022-11-28T10:28:23;14.17;;;10.60;;
14740;SDS011;7462;53.530;9.414;2022-11-28T10:30:56;13.70;;;10.87;;
14740;SDS011;7462;53.530;9.414;2022-11-28T10:33:30;13.03;;;10.63;;
14740;SDS011;7462;53.530;9.414;2022-11-28T10:36:03;18.63;;;11.07;;
14740;SDS011;7462;53.530;9.414;2022-11-28T10:38:33;16.47;;;11.60;;
14740;SDS011;7462;53.530;9.414;2022-11-28T10:41:03;13.33;;;10.87;;
14740;SDS011;7462;53.530;9.414;2022-11-28T10:43:41;16.13;;;11.43;;
14740;SDS011;7462;53.530;9.414;2022-11-28T10:46:20;13.93;;;11.00;;
14740;SDS011;7462;53.530;9.414;2022-11-28T10:48:59;14.37;;;11.70;;
14740;SDS011;7462;53.530;9.414;2022-11-28T10:51:37;15.33;;;11.63;;
14740;SDS011;7462;53.530;9.414;2022-11-28T10:54:17;15.33;;;11.27;;
14740;SDS011;7462;53.530;9.414;2022-11-28T10:56:55;14.33;;;11.27;;
14740;SDS011;7462;53.530;9.414;2022-11-28T10:59:32;14.70;;;11.43;;
14740;SDS011;7462;53.530;9.414;2022-11-28T11:02:16;13.73;;;10.37;;
14740;SDS011;7462;53.530;9.414;2022-11-28T11:04:47;16.23;;;11.30;;
14740;SDS011;7462;53.530;9.414;2022-11-28T11:07:16;14.13;;;12.07;;
14740;SDS011;7462;53.530;9.414;2022-11-28T11:09:55;14.97;;;10.97;;
14740;SDS011;7462;53.530;9.414;2022-11-28T11:12:26;14.53;;;11.70;;
14740;SDS011;7462;53.530;9.414;2022-11-28T11:14:59;18.53;;;11.80;;
14740;SDS011;7462;53.530;9.414;2022-11-28T11:17:42;16.10;;;12.00;;
14740;SDS011;7462;53.530;9.414;2022-11-28T11:20:28;14.77;;;11.43;;
14740;SDS011;7462;53.530;9.414;2022-11-28T11:23:00;12.67;;;9.83;;
14740;SDS011;7462;53.530;9.414;2022-11-28T11:25:30;15.57;;;12.67;;
14740;SDS011;7462;53.530;9.414;2022-11-28T11:27:59;17.50;;;12.27;;
14740;SDS011;7462;53.530;9.414;2022-11-28T11:30:32;19.13;;;13.57;;
14740;SDS011;7462;53.530;9.414;2022-11-28T11:33:04;16.37;;;13.50;;
14740;SDS011;7462;53.530;9.414;2022-11-28T11:35:41;19.37;;;12.90;;
14740;SDS011;7462;53.530;9.414;2022-11-28T11:38:15;18.83;;;13.63;;
14740;SDS011;7462;53.530;9.414;2022-11-28T11:40:44;16.43;;;13.20;;
14740;SDS011;7462;53.530;9.414;2022-11-28T11:43:22;18.60;;;12.43;;
14740;SDS011;7462;53.530;9.414;2022-11-28T11:46:06;15.83;;;12.83;;
14740;SDS011;7462;53.530;9.414;2022-11-28T11:48:37;18.73;;;14.07;;
14740;SDS011;7462;53.530;9.414;2022-11-28T11:51:11;18.30;;;12.87;;
14740;SDS011;7462;53.530;9.414;2022-11-28T11:53:58;16.23;;;12.00;;
14740;SDS011;7462;53.530;9.414;2022-11-28T11:56:28;13.23;;;11.53;;
14740;SDS011;7462;53.530;9.414;2022-11-28T11:58:58;14.90;;;11.93;;
14740;SDS011;7462;53.530;9.414;2022-11-28T12:01:30;15.93;;;11.97;;
14740;SDS011;7462;53.530;9.414;2022-11-28T12:04:02;15.57;;;11.30;;
14740;SDS011;7462;53.530;9.414;2022-11-28T12:06:53;14.53;;;12.50;;
14740;SDS011;7462;53.530;9.414;2022-11-28T12:09:25;15.60;;;11.90;;
14740;SDS011;7462;53.530;9.414;2022-11-28T12:11:58;14.47;;;11.57;;
14740;SDS011;7462;53.530;9.414;2022-11-28T12:14:31;15.23;;;12.00;;
14740;SDS011;7462;53.530;9.414;2022-11-28T12:17:06;16.37;;;12.40;;
14740;SDS011;7462;53.530;9.414;2022-11-28T12:20:19;15.93;;;11.67;;
14740;SDS011;7462;53.530;9.414;2022-11-28T12:23:00;17.77;;;12.47;;
14740;SDS011;7462;53.530;9.414;2022-11-28T12:25:43;18.07;;;12.77;;
14740;SDS011;7462;53.530;9.414;2022-11-28T12:28:17;18.27;;;14.13;;
14740;SDS011;7462;53.530;9.414;2022-11-28T12:30:57;19.80;;;14.60;;
14740;SDS011;7462;53.530;9.414;2022-11-28T12:33:38;24.60;;;16.50;;
14740;SDS011;7462;53.530;9.414;2022-11-28T12:36:16;24.30;;;16.30;;
14740;SDS011;7462;53.530;9.414;2022-11-28T12:39:02;23.43;;;15.50;;
14740;SDS011;7462;53.530;9.414;2022-11-28T12:41:45;23.57;;;15.20;;
14740;SDS011;7462;53.530;9.414;2022-11-28T12:44:49;17.30;;;13.33;;
14740;SDS011;7462;53.530;9.414;2022-11-28T12:47:26;19.30;;;14.10;;
14740;SDS011;7462;53.530;9.414;2022-11-28T12:50:07;19.50;;;14.00;;
14740;SDS011;7462;53.530;9.414;2022-11-28T12:52:44;19.70;;;15.40;;
14740;SDS011;7462;53.530;9.414;2022-11-28T12:55:21;18.77;;;14.37;;
14740;SDS011;7462;53.530;9.414;2022-11-28T12:57:56;17.63;;;13.13;;
14740;SDS011;7462;53.530;9.414;2022-11-28T13:00:32;21.90;;;16.27;;
14740;SDS011;7462;53.530;9.414;2022-11-28T13:03:08;19.70;;;14.10;;
14740;SDS011;7462;53.530;9.414;2022-11-28T13:05:46;17.93;;;14.50;;
14740;SDS011;7462;53.530;9.414;2022-11-28T13:11:24;17.43;;;12.73;;
14740;SDS011;7462;53.530;9.414;2022-11-28T13:14:07;19.13;;;14.00;;
14740;SDS011;7462;53.530;9.414;2022-11-28T13:16:45;19.23;;;12.83;;
14740;SDS011;7462;53.530;9.414;2022-11-28T13:19:20;18.50;;;13.43;;
14740;SDS011;7462;53.530;9.414;2022-11-28T13:22:01;18.67;;;13.00;;
14740;SDS011;7462;53.530;9.414;2022-11-28T13:24:38;18.67;;;13.57;;
14740;SDS011;7462;53.530;9.414;2022-11-28T13:27:15;19.53;;;13.17;;
14740;SDS011;7462;53.530;9.414;2022-11-28T13:29:52;16.73;;;12.77;;
14740;SDS011;7462;53.530;9.414;2022-11-28T13:32:29;17.70;;;13.07;;
14740;SDS011;7462;53.530;9.414;2022-11-28T13:35:08;19.03;;;13.73;;
14740;SDS011;7462;53.530;9.414;2022-11-28T13:37:41;17.63;;;13.20;;
14740;SDS011;7462;53.530;9.414;2022-11-28T13:40:36;24.27;;;19.13;;
14740;SDS011;7462;53.530;9.414;2022-11-28T13:43:09;24.93;;;17.87;;
14740;SDS011;7462;53.530;9.414;2022-11-28T13:45:44;22.30;;;15.97;;
14740;SDS011;7462;53.530;9.414;2022-11-28T13:51:41;18.70;;;13.30;;
14740;SDS011;7462;53.530;9.414;2022-11-28T13:57:26;20.53;;;12.90;;
14740;SDS011;7462;53.530;9.414;2022-11-28T13:59:57;17.53;;;13.70;;
14740;SDS011;7462;53.530;9.414;2022-11-28T14:02:40;18.73;;;13.33;;
14740;SDS011;7462;53.530;9.414;2022-11-28T14:05:15;17.70;;;13.77;;
14740;SDS011;7462;53.530;9.414;2022-11-28T14:07:55;18.80;;;13.33;;
14740;SDS011;7462;53.530;9.414;2022-11-28T14:10:37;19.07;;;13.43;;
14740;SDS011;7462;53.530;9.414;2022-11-28T14:13:46;19.70;;;14.23;;
14740;SDS011;7462;53.530;9.414;2022-11-28T14:16:29;20.47;;;15.40;;
14740;SDS011;7462;53.530;9.414;2022-11-28T14:19:16;21.43;;;15.63;;
14740;SDS011;7462;53.530;9.414;2022-11-28T14:21:56;20.43;;;15.33;;
14740;SDS011;7462;53.530;9.414;2022-11-28T14:27:27;23.80;;;17.93;;
14740;SDS011;7462;53.530;9.414;2022-11-28T14:29:58;24.93;;;17.83;;
14740;SDS011;7462;53.530;9.414;2022-11-28T14:32:29;22.07;;;16.70;;
14740;SDS011;7462;53.530;9.414;2022-11-28T14:35:02;23.80;;;17.43;;
14740;SDS011;7462;53.530;9.414;2022-11-28T14:43:34;22.43;;;19.20;;
14740;SDS011;7462;53.530;9.414;2022-11-28T14:55:12;20.73;;;16.73;;
14740;SDS011;7462;53.530;9.414;2022-11-28T14:57:50;21.40;;;15.83;;
14740;SDS011;7462;53.530;9.414;2022-11-28T15:00:26;22.77;;;16.77;;
14740;SDS011;7462;53.530;9.414;2022-11-28T15:05:53;20.93;;;16.17;;
14740;SDS011;7462;53.530;9.414;2022-11-28T15:08:36;21.43;;;16.90;;
14740;SDS011;7462;53.530;9.414;2022-11-28T15:11:30;23.23;;;18.13;;
14740;SDS011;7462;53.530;9.414;2022-11-28T15:14:13;21.93;;;17.47;;
14740;SDS011;7462;53.530;9.414;2022-11-28T15:16:49;22.73;;;17.87;;
14740;SDS011;7462;53.530;9.414;2022-11-28T15:19:22;24.27;;;17.60;;
14740;SDS011;7462;53.530;9.414;2022-11-28T15:21:53;22.97;;;18.20;;
14740;SDS011;7462;53.530;9.414;2022-11-28T15:24:23;22.60;;;17.70;;
14740;SDS011;7462;53.530;9.414;2022-11-28T15:26:55;22.03;;;16.07;;
14740;SDS011;7462;53.530;9.414;2022-11-28T15:29:25;21.73;;;16.00;;
14740;SDS011;7462;53.530;9.414;2022-11-28T15:31:55;26.70;;;19.77;;
14740;SDS011;7462;53.530;9.414;2022-11-28T15:34:25;30.50;;;22.10;;
14740;SDS011;7462;53.530;9.414;2022-11-28T15:36:56;30.55;;;23.70;;
14740;SDS011;7462;53.530;9.414;2022-11-28T15:39:27;23.93;;;19.33;;
14740;SDS011;7462;53.530;9.414;2022-11-28T15:42:01;27.57;;;19.17;;
14740;SDS011;7462;53.530;9.414;2022-11-28T15:44:31;25.23;;;18.13;;
14740;SDS011;7462;53.530;9.414;2022-11-28T15:47:03;28.77;;;20.40;;
14740;SDS011;7462;53.530;9.414;2022-11-28T15:49:32;25.90;;;18.03;;
14740;SDS011;7462;53.530;9.414;2022-11-28T15:52:04;22.60;;;17.37;;